Dayton, Alabama
Current Conditions -  °F | °C
As of 6:15 PM on Sunday 23 Nov 2014 (Local Time) from KDYA Reporting Station
Clear Clear  
Wind Chill: 64°   Ceiling: Unl
Heat Index: 64°   Visibility: 10mi
Dew Point: 59°   Wind: 8mph
Humidity: 85%   Direction: 160°SSE
Pressure: 29.62"   Gusts: NA
Location:  32.409°N, 87.615°W
Report Text: KDYA 240015Z AUTO 16007KT 10SM CLR 18/15 A2962 RMK AO2 T01750150
Loading
Personal Weather Stations






























Interactive Weather Map New forecast layout! Learn more

10-Day Weather Forecast

Advertisements
Track Severe Weather on mobile